createdAt,value
2023-01-13T00:00:10.640Z,2.40
2023-01-13T00:05:15.154Z,1.70
2023-01-13T00:10:17.144Z,2.60
2023-01-13T00:15:18.917Z,1.90
2023-01-13T00:20:21.081Z,1.90
2023-01-13T00:25:22.836Z,2.50
2023-01-13T00:30:24.650Z,2.30
2023-01-13T00:35:27.121Z,2.90
2023-01-13T00:40:28.928Z,1.80
2023-01-13T00:45:30.693Z,1.90
2023-01-13T00:50:33.118Z,2.10
2023-01-13T00:55:34.929Z,1.70
2023-01-13T01:00:37.016Z,1.80
2023-01-13T01:05:39.914Z,2.90
2023-01-13T01:10:41.687Z,2.40
2023-01-13T01:15:44.589Z,1.70
2023-01-13T01:20:46.642Z,2.20
2023-01-13T01:25:48.493Z,2.30
2023-01-13T01:30:51.393Z,2.60
2023-01-13T01:35:54.135Z,3.00
2023-01-13T01:40:56.492Z,3.10
2023-01-13T01:45:58.309Z,3.90
2023-01-13T01:51:00.488Z,3.30
2023-01-13T01:56:03.520Z,3.80
2023-01-13T02:01:05.451Z,3.40
2023-01-13T02:06:08.357Z,3.40
2023-01-13T02:11:47.407Z,2.90
2023-01-13T02:17:07.320Z,3.00
2023-01-13T02:22:26.374Z,2.70
2023-01-13T02:27:46.653Z,2.90
2023-01-13T02:33:00.032Z,3.20
2023-01-13T02:38:02.832Z,2.70
2023-01-13T02:43:33.731Z,2.90
2023-01-13T02:48:38.280Z,3.40
2023-01-13T02:53:53.846Z,2.30
2023-01-13T02:58:57.914Z,2.40
2023-01-13T03:03:59.631Z,2.40
2023-01-13T03:09:10.633Z,3.10
2023-01-13T03:14:27.566Z,3.20
2023-01-13T03:19:43.091Z,2.90
2023-01-13T03:24:53.451Z,2.90
2023-01-13T03:30:08.121Z,3.20
2023-01-13T03:35:19.013Z,3.00
2023-01-13T03:40:26.168Z,3.80
2023-01-13T03:45:31.174Z,3.50
2023-01-13T03:50:41.013Z,3.10
2023-01-13T03:55:50.245Z,3.70
2023-01-13T04:00:55.690Z,3.50
2023-01-13T04:06:08.933Z,3.90
2023-01-13T04:11:19.738Z,3.40
2023-01-13T04:16:21.572Z,3.50
2023-01-13T04:21:23.284Z,3.40
2023-01-13T04:26:24.978Z,3.50
2023-01-13T04:31:26.925Z,2.90
2023-01-13T04:36:28.756Z,3.40
2023-01-13T04:41:53.319Z,2.70
2023-01-13T04:46:55.189Z,3.40
2023-01-13T04:51:57.381Z,3.00
2023-01-13T04:56:59.099Z,2.80
2023-01-13T05:02:00.840Z,2.80
2023-01-13T05:07:02.616Z,3.00
2023-01-13T05:12:23.194Z,3.00
2023-01-13T05:17:26.103Z,3.60
2023-01-13T05:22:51.036Z,3.20
2023-01-13T05:27:55.735Z,3.10
2023-01-13T05:32:57.695Z,4.80
2023-01-13T05:37:59.375Z,4.20
2023-01-13T05:43:21.973Z,3.40
2023-01-13T05:48:26.861Z,3.90
2023-01-13T05:53:29.287Z,3.20
2023-01-13T05:58:31.388Z,3.40
2023-01-13T06:03:33.496Z,3.00
2023-01-13T06:08:35.568Z,3.80
2023-01-13T06:13:37.922Z,3.50
2023-01-13T06:18:39.707Z,3.30
2023-01-13T06:23:41.380Z,3.50
2023-01-13T06:28:43.148Z,2.80
2023-01-13T06:33:52.469Z,4.40
2023-01-13T06:38:57.730Z,2.80
2023-01-13T06:43:59.492Z,3.30
2023-01-13T06:49:01.294Z,3.60
2023-01-13T06:54:03.368Z,3.10
2023-01-13T06:59:05.055Z,3.10
2023-01-13T07:04:06.751Z,4.10
2023-01-13T07:09:08.428Z,3.80
2023-01-13T07:14:29.117Z,4.20
2023-01-13T07:19:30.844Z,4.10
2023-01-13T07:24:32.535Z,5.20
2023-01-13T07:29:34.213Z,4.70
2023-01-13T07:34:36.000Z,4.60
2023-01-13T07:39:37.725Z,4.70
2023-01-13T07:44:39.444Z,4.10
2023-01-13T07:49:41.135Z,4.40
2023-01-13T07:54:42.835Z,4.90
2023-01-13T07:59:44.500Z,4.60
2023-01-13T08:04:46.275Z,7.80
2023-01-13T08:09:48.969Z,5.20
2023-01-13T08:14:51.761Z,4.20
2023-01-13T08:19:53.528Z,5.60
2023-01-13T08:24:55.230Z,3.90
2023-01-13T08:29:56.926Z,4.30
2023-01-13T08:34:58.621Z,3.60
2023-01-13T08:40:00.302Z,4.60
2023-01-13T18:16:07.195Z,11.10
2023-01-13T18:21:37.949Z,8.80
2023-01-13T18:26:58.443Z,9.40
2023-01-13T18:32:00.248Z,13.70
2023-01-13T18:37:02.253Z,24.20
2023-01-13T18:42:24.104Z,24.20
2023-01-13T18:47:28.857Z,23.40
2023-01-13T18:52:30.592Z,19.10
2023-01-13T18:57:32.324Z,23.00
2023-01-13T19:02:34.447Z,19.00
2023-01-13T19:07:36.761Z,15.10
2023-01-13T19:12:38.434Z,15.50
2023-01-13T19:17:40.361Z,20.90
2023-01-13T19:22:42.289Z,12.00
2023-01-13T19:27:44.300Z,12.50
2023-01-13T19:32:46.052Z,16.50
2023-01-13T19:37:47.797Z,15.20
2023-01-13T19:43:08.331Z,13.40
2023-01-13T19:48:10.087Z,14.60
2023-01-13T19:53:17.895Z,11.00
2023-01-13T19:58:21.232Z,11.90
2023-01-13T20:03:25.947Z,12.80
2023-01-13T20:08:28.187Z,20.20
2023-01-13T20:13:32.428Z,17.00
2023-01-13T20:18:36.623Z,20.30
2023-01-13T20:23:38.387Z,32.30
2023-01-13T20:28:40.194Z,29.30
2023-01-13T20:33:43.154Z,22.70
2023-01-13T20:38:44.816Z,14.90
2023-01-13T20:48:50.770Z,13.90
2023-01-13T20:53:52.569Z,17.80
2023-01-13T20:58:54.463Z,18.10
2023-01-13T21:03:57.226Z,14.60
2023-01-13T21:08:59.119Z,15.60
2023-01-13T21:14:19.608Z,17.10
2023-01-13T21:19:21.311Z,14.70
2023-01-13T21:24:24.249Z,21.20
2023-01-13T21:29:25.988Z,17.30
2023-01-13T21:34:27.782Z,14.30
2023-01-13T21:39:29.560Z,15.50
2023-01-13T21:44:50.175Z,14.40
2023-01-13T21:49:51.963Z,18.80
2023-01-13T21:55:12.534Z,17.60
2023-01-13T22:00:15.711Z,21.30
2023-01-13T22:05:20.037Z,19.10
2023-01-13T22:10:24.379Z,18.50
2023-01-13T22:15:28.352Z,18.00
2023-01-13T22:20:30.051Z,20.20
2023-01-13T22:25:31.744Z,17.70
2023-01-13T22:30:33.477Z,18.20
2023-01-13T22:35:35.214Z,21.10
2023-01-13T22:40:36.885Z,19.60
2023-01-13T22:50:40.819Z,18.10
2023-01-13T22:55:44.363Z,17.00
2023-01-13T23:00:46.904Z,15.70
2023-01-13T23:05:49.597Z,15.70
2023-01-13T23:10:51.256Z,16.90
2023-01-13T23:15:53.038Z,17.90
2023-01-13T23:20:54.810Z,15.30
2023-01-13T23:26:18.930Z,13.70
2023-01-13T23:36:01.008Z,15.50
2023-01-13T23:41:07.354Z,15.60
2023-01-13T23:46:14.154Z,19.20
2023-01-13T23:51:16.160Z,17.20
2023-01-13T23:56:21.285Z,20.20
